Latest Coastal Weather Observations for King Island Airport

IDV60701

Issued at 1:31 pm EST Wednesday 29 June 2016 (issued every 10 minutes, with the page automatically refreshed every 10 minutes)

About coastal observations | Map of coastal stations | Coastal observations for VIC | Marine services | Other Formats
Station Details ID: 098017 Name: KING ISLAND AIRPORT Lat: -39.88 Lon: 143.88 Height: 37.0 m
Data from the previous 72 hours. | See also: Recent months at King Island Airport
Date/Time
EST
Temp
°C
Wind Pressure Rain since
9am
mm
Weather Cloud Vis
km
Sea
Height
m
Swell
Dir  Spd
kts
Gust
kts
hPa Trend Height
m
Period
s
Dir
29/01:30pm 14.1 NNW 19 27 1020.9 - 0.8 - Partly cloudy 10 - - - -
29/01:00pm 13.7 NNW 18 23 1021.5 - 0.8 - - 10 - - - -
29/12:30pm 14.2 NNW 19 23 1021.9 - 0.8 - Partly cloudy 10 - - - -
29/12:00pm 13.9 NNW 18 24 1022.3 - 0.8 - Partly cloudy 10 - - - -
29/11:30am 13.6 NNW 17 22 1022.9 - 0.8 - Partly cloudy 10 - - - -
29/11:00am 13.6 NNW 18 22 1023.2 - 0.8 - Partly cloudy 10 - - - -
29/10:57am 13.8 NNW 17 21 1023.2 - 0.8 - Partly cloudy 10 - - - -
29/10:41am 12.8 NW 20 25 1023.4 - 0.6 - Partly cloudy 5 - - - -
29/10:34am 13.1 NNW 11 25 1023.4 - 0.4 - Partly cloudy 10 - - - -
29/10:30am 13.1 NNW 6 14 1023.3 - 0.4 - Partly cloudy 10 - - - -
29/10:00am 11.9 NW 11 14 1023.6 - 0.4 - Partly cloudy 8 - - - -
29/09:30am 12.4 NW 14 18 1023.6 - 0.0 - Partly cloudy 10 - - - -
29/09:00am 13.6 NW 13 16 1023.4 - 1.8 - Cloudy 10 - - - -
29/08:30am 13.3 NW 16 19 1023.3 - 1.8 - Partly cloudy 10 - - - -
29/08:00am 12.7 NW 11 15 1023.1 - 1.8 - Partly cloudy 10 - - - -
29/07:30am 12.8 WNW 13 16 1022.8 - 1.8 - Partly cloudy 10 - - - -
29/07:00am 12.6 WNW 13 17 1022.8 - 1.8 - Partly cloudy 10 - - - -
29/06:30am 12.9 NW 15 19 1022.5 - 1.8 - Partly cloudy 10 - - - -
29/06:00am 13.0 W 13 17 1022.5 - 1.8 Rain Cloudy 10 - - - -
29/05:30am 13.0 WNW 12 17 1022.4 - 1.6 - Partly cloudy 10 - - - -
29/05:00am 12.6 WNW 13 18 1022.3 - 1.6 - Partly cloudy 10 - - - -
29/04:30am 13.3 W 11 15 1022.2 - 1.6 - Partly cloudy 10 - - - -
29/04:00am 13.0 WNW 16 20 1022.2 - 1.6 - Partly cloudy 10 - - - -
29/03:30am 13.3 WNW 12 17 1022.4 - 1.6 - Partly cloudy 10 - - - -
29/03:00am 12.8 WNW 14 19 1022.5 - 1.6 - Mostly clear 10 - - - -
29/02:30am 12.8 W 13 18 1022.3 - 1.6 - - 10 - - - -
29/02:00am 13.0 W 16 22 1022.4 - 1.6 - - 10 - - - -
29/01:30am 13.1 WNW 15 21 1022.3 - 1.6 - Partly cloudy 10 - - - -
29/01:00am 13.1 WNW 16 20 1022.4 - 1.6 - Partly cloudy 10 - - - -
29/12:30am 13.0 WNW 16 22 1022.5 - 1.6 - Partly cloudy 10 - - - -
29/12:00am 12.9 WNW 17 23 1022.6 - 1.6 - Partly cloudy 10 - - - -
 
Date/Time
EST
Temp
°C
Wind Pressure Rain since
9am
mm
Weather Cloud Vis
km
Sea
Height
m
Swell
Dir  Spd
kts
Gust
kts
hPa Trend Height
m
Period
s
Dir
28/11:30pm 13.0 W 17 23 1022.4 - 1.6 - Partly cloudy 10 - - - -
28/11:00pm 13.2 WNW 15 20 1022.4 - 1.6 - Partly cloudy 10 - - - -
28/10:30pm 12.8 WNW 14 19 1022.4 - 1.6 - Partly cloudy 10 - - - -
28/10:00pm 12.9 WNW 12 17 1022.4 - 1.6 - Cloudy 10 - - - -
28/09:30pm 12.5 W 13 19 1022.4 - 1.6 - Partly cloudy 10 - - - -
28/09:17pm 12.8 W 16 26 1022.3 - 1.6 - Partly cloudy 10 - - - -
28/09:00pm 13.5 WNW 17 21 1022.2 - 1.6 - Cloudy 10 - - - -
28/08:30pm 13.3 NW 16 20 1022.1 - 1.6 - Partly cloudy 10 - - - -
28/08:00pm 13.2 WNW 18 22 1022.0 - 1.6 - Partly cloudy 10 - - - -
28/07:30pm 12.9 NW 17 20 1021.7 - 1.6 - Partly cloudy 10 - - - -
28/07:00pm 12.7 NW 26 33 1021.6 - 1.6 - Partly cloudy 10 - - - -
28/06:48pm 13.3 NW 22 32 1021.3 - 1.6 - Partly cloudy 10 - - - -
28/06:30pm 13.7 NW 17 23 1021.0 - 1.6 - Partly cloudy 10 - - - -
28/06:00pm 13.3 NW 15 18 1021.0 - 1.6 - Partly cloudy 10 - - - -
28/05:30pm 13.2 WNW 14 18 1020.9 - 1.6 - Partly cloudy 10 - - - -
28/05:00pm 13.9 WNW 13 17 1020.9 - 1.6 - Partly cloudy 10 - - - -
28/04:30pm 14.0 WNW 15 21 1020.7 - 1.6 - Partly cloudy 10 - - - -
28/04:00pm 13.9 W 13 16 1020.6 - 1.6 - Partly cloudy 10 - - - -
28/03:30pm 14.3 WNW 15 19 1020.5 - 1.6 - Partly cloudy 10 - - - -
28/03:00pm 14.5 WNW 13 19 1020.3 - 1.6 - Cloudy 10 - - - -
28/02:30pm 14.7 WNW 14 19 1020.3 - 1.6 - Partly cloudy 10 - - - -
28/02:00pm 14.2 W 14 20 1020.1 - 1.6 - Partly cloudy 10 - - - -
28/01:30pm 13.9 W 15 22 1020.3 - 1.4 - Partly cloudy 10 - - - -
28/01:00pm 14.4 W 19 26 1020.3 - 1.4 - Partly cloudy 10 - - - -
28/12:30pm 14.4 W 14 19 1020.3 - 1.4 - Partly cloudy 10 - - - -
28/12:00pm 13.4 WNW 13 16 1020.5 - 1.4 Rain Cloudy 10 - - - -
28/11:51am 12.5 WNW 13 17 1020.6 - 1.4 - Partly cloudy 10 - - - -
28/11:32am 12.4 WNW 18 28 1020.8 - 1.0 - Partly cloudy 5 - - - -
28/11:30am 12.8 WNW 16 27 1020.8 - 0.6 - Partly cloudy 10 - - - -
28/11:29am 13.3 WNW 15 27 1020.8 - 0.4 - Partly cloudy 10 - - - -
28/11:00am 14.5 W 14 23 1020.5 - 0.4 - Partly cloudy 10 - - - -
28/10:30am 13.9 WNW 17 23 1020.3 - 0.4 - Partly cloudy 10 - - - -
28/10:00am 13.8 WNW 13 18 1020.2 - 0.4 - Partly cloudy 10 - - - -
28/09:56am 13.2 WNW 13 18 1020.2 - 0.4 - Partly cloudy 10 - - - -
28/09:40am 11.8 WNW 18 28 1020.1 - 0.2 - Partly cloudy 5 - - - -
28/09:36am 13.1 WNW 16 27 1020.1 - 0.0 - Partly cloudy 10 - - - -
28/09:30am 13.7 WNW 16 21 1019.8 - 0.0 - Partly cloudy 10 - - - -
28/09:00am 13.5 W 10 14 1019.7 - 2.6 Rain Cloudy 10 - - - -
28/08:55am 13.0 W 12 17 1019.6 - 2.6 - Partly cloudy 10 - - - -
28/08:39am 12.3 WNW 14 18 1019.5 - 2.4 - Partly cloudy 5 - - - -
28/08:30am 12.9 WNW 15 18 1019.3 - 2.2 - Partly cloudy 10 - - - -
28/08:07am 13.4 WNW 16 26 1019.2 - 2.2 - Partly cloudy 10 - - - -
28/08:00am 12.9 WNW 14 18 1019.1 - 2.2 - Partly cloudy 10 - - - -
28/07:30am 12.8 WNW 14 20 1018.9 - 2.2 - Partly cloudy 10 - - - -
28/07:00am 12.8 WNW 15 21 1018.7 - 2.2 - Partly cloudy 10 - - - -
28/06:30am 12.7 WNW 15 21 1018.3 - 2.2 - Partly cloudy 10 - - - -
28/06:00am 12.7 WNW 13 18 1017.9 - 2.2 Rain Cloudy 10 - - - -
28/05:36am 12.2 WNW 13 18 1017.7 - 2.2 - Partly cloudy 10 - - - -
28/05:30am 12.2 WNW 16 22 1017.7 - 2.2 - Partly cloudy 10 - - - -
28/05:21am 12.2 WNW 15 25 1017.6 - 2.2 - Partly cloudy 5 - - - -
28/05:20am 12.5 W 15 25 1017.6 - 2.2 - Partly cloudy 6 - - - -
28/05:00am 12.6 WNW 16 22 1017.4 - 1.8 - Partly cloudy 10 - - - -
28/04:30am 12.6 WNW 15 19 1017.3 - 1.8 - Partly cloudy 10 - - - -
28/04:00am 12.3 WNW 13 17 1017.3 - 1.8 - Partly cloudy 10 - - - -
28/03:30am 12.1 WNW 16 22 1017.4 - 1.8 - Partly cloudy 10 - - - -
28/03:00am 11.7 WNW 13 17 1017.6 - 1.8 Rain Partly cloudy 10 - - - -
28/02:53am 11.5 WNW 13 17 1017.6 - 1.8 - Partly cloudy 10 - - - -
28/02:45am 11.5 WNW 19 29 1017.6 - 1.8 - Partly cloudy 6 - - - -
28/02:39am 11.5 WNW 23 31 1017.7 - 1.6 - Partly cloudy 5 - - - -
28/02:30am 12.8 WNW 17 31 1017.6 - 1.6 - Partly cloudy 10 - - - -
28/02:29am 13.0 WNW 16 27 1017.6 - 1.6 - Partly cloudy 10 - - - -
28/02:00am 12.5 WNW 16 22 1017.3 - 1.6 - Partly cloudy 10 - - - -
28/01:30am 12.4 WNW 14 18 1017.4 - 1.6 - Partly cloudy 10 - - - -
28/01:00am 12.1 W 12 18 1017.5 - 1.6 - Partly cloudy 10 - - - -
28/12:30am 11.7 WNW 13 16 1017.5 - 1.6 - Partly cloudy 10 - - - -
28/12:00am 11.4 WNW 16 20 1017.7 - 1.6 Showers Cloudy 10 - - - -
 
Date/Time
EST
Temp
°C
Wind Pressure Rain since
9am
mm
Weather Cloud Vis
km
Sea
Height
m
Swell
Dir  Spd
kts
Gust
kts
hPa Trend Height
m
Period
s
Dir
27/11:30pm 11.7 WNW 15 19 1017.6 - 1.6 - Partly cloudy 10 - - - -
27/11:00pm 11.2 WNW 17 22 1017.7 - 1.6 - Partly cloudy 8 - - - -
27/10:37pm 11.5 WNW 16 23 1017.8 - 1.2 - Partly cloudy 8 - - - -
27/10:30pm 11.8 W 16 21 1017.8 - 1.2 - Partly cloudy 6 - - - -
27/10:27pm 11.8 W 16 22 1017.8 - 1.2 - Partly cloudy 5 - - - -
27/10:00pm 12.5 WNW 15 20 1017.4 - 1.2 - Partly cloudy 10 - - - -
27/09:30pm 12.2 WNW 15 21 1017.4 - 1.2 - Partly cloudy 10 - - - -
27/09:00pm 12.1 WNW 15 21 1017.4 - 1.2 - Partly cloudy 10 - - - -
27/08:30pm 11.9 W 15 21 1017.4 - 1.2 - Partly cloudy 10 - - - -
27/08:00pm 12.0 W 14 18 1017.3 - 1.2 - Partly cloudy 10 - - - -
27/07:30pm 11.9 W 14 19 1017.0 - 1.2 - Partly cloudy 10 - - - -
27/07:00pm 11.9 W 16 21 1017.0 - 1.2 - Partly cloudy 10 - - - -
27/06:30pm 11.6 WNW 15 19 1016.7 - 1.2 - Partly cloudy 10 - - - -
27/06:00pm 11.5 W 14 17 1016.5 - 1.2 - Mostly clear 10 - - - -
27/05:30pm 11.3 W 14 19 1016.2 - 1.2 - Partly cloudy 10 - - - -
27/05:00pm 11.6 W 14 20 1015.9 - 1.2 - Partly cloudy 10 - - - -
27/04:30pm 11.8 W 15 22 1015.6 - 1.2 - Partly cloudy 10 - - - -
27/04:00pm 12.3 W 13 17 1015.5 - 1.2 - Partly cloudy 10 - - - -
27/03:30pm 12.5 W 14 18 1015.5 - 1.2 - Partly cloudy 10 - - - -
27/03:00pm 12.5 W 14 19 1015.4 - 1.2 Drizzle Mostly cloudy 10 - - - -
27/02:30pm 12.2 W 10 14 1015.4 - 1.2 - Partly cloudy 10 - - - -
27/02:00pm 10.5 W 17 23 1015.6 - 1.2 - Partly cloudy 10 - - - -
27/01:30pm 12.3 W 11 14 1015.4 - 1.2 - Partly cloudy 10 - - - -
27/01:00pm 11.3 W 11 15 1015.5 - 1.2 - Partly cloudy 10 - - - -
27/12:30pm 11.9 WNW 9 13 1015.6 - 1.2 - Partly cloudy 10 - - - -
27/12:00pm 11.7 W 10 14 1015.9 - 1.0 Recent precip. Cloudy 10 - - - -
27/11:30am 11.7 W 10 15 1015.9 - 1.0 - Cloudy 10 - - - -
27/11:10am 11.4 W 8 12 1015.9 - 0.8 - Partly cloudy 10 - - - -
27/11:00am 10.1 WNW 13 20 1016.1 - 0.8 - Partly cloudy 5 - - - -
27/10:53am 9.6 WNW 15 20 1016.1 - 0.8 - Partly cloudy 5 - - - -
27/10:30am 11.4 W 9 13 1015.8 - 0.0 - Partly cloudy 10 - - - -
27/10:00am 12.1 W 8 11 1015.6 - 0.0 - Partly cloudy 10 - - - -
27/09:30am 11.3 WSW 8 10 1015.4 - 0.0 - Partly cloudy 10 - - - -
27/09:00am 10.4 WSW 7 9 1015.2 - 10.0 - - 10 - - - -
27/08:30am 9.8 WSW 7 9 1014.9 - 10.0 - Partly cloudy 10 - - - -
27/08:00am 9.1 SW 6 8 1014.6 - 10.0 - Partly cloudy 10 - - - -
27/07:30am 8.9 SW 6 8 1014.3 - 10.0 - Partly cloudy 10 - - - -
27/07:00am 8.6 SW 6 8 1014.0 - 10.0 - - 10 - - - -
27/06:30am 9.4 SW 8 10 1013.7 - 10.0 - Partly cloudy 10 - - - -
27/06:00am 9.2 SSW 4 5 1013.5 - 10.0 - Cloudy 10 - - - -
27/05:30am 9.2 S 2 6 1013.1 - 10.0 - Partly cloudy 10 - - - -
27/05:00am 9.6 SSW 6 7 1012.9 - 10.0 - Partly cloudy 10 - - - -
27/04:30am 9.5 SW 6 7 1012.7 - 10.0 - Partly cloudy 10 - - - -
27/04:00am 9.8 SSW 9 10 1012.6 - 10.0 - Partly cloudy 10 - - - -
27/03:30am 9.8 SW 7 9 1012.5 - 10.0 - Partly cloudy 10 - - - -
27/03:00am 10.3 SSW 7 10 1012.5 - 10.0 Rain Cloudy 10 - - - -
27/02:30am 10.3 SW 6 8 1012.3 - 9.8 - Partly cloudy 9 - - - -
27/02:14am 10.3 SW 7 10 1012.2 - 9.6 - Partly cloudy 10 - - - -
27/02:00am 10.8 WSW 9 15 1012.2 - 9.6 - Partly cloudy 6 - - - -
27/01:56am 11.0 W 10 15 1012.2 - 9.6 - Partly cloudy 6 - - - -
27/01:33am 11.3 WNW 14 18 1012.2 - 8.0 - Partly cloudy 5 - - - -
27/01:30am 11.3 WNW 15 22 1012.2 - 7.8 - Partly cloudy 6 - - - -
27/01:24am 11.4 WNW 17 24 1012.3 - 7.2 - Partly cloudy 8 - - - -
27/01:00am 11.3 WNW 16 25 1012.3 - 5.8 - Cloudy 5 - - - -
27/12:42am 11.3 NW 20 26 1012.3 - 3.4 - Partly cloudy 5 - - - -
27/12:30am 11.2 NW 18 25 1012.3 - 2.8 - Partly cloudy 6 - - - -
27/12:22am 11.2 NW 20 25 1012.6 - 2.6 - Partly cloudy 8 - - - -
27/12:12am 11.0 NW 19 27 1012.6 - 2.2 - Partly cloudy 5 - - - -
27/12:09am 11.3 NW 19 27 1012.6 - 2.0 - Partly cloudy 7 - - - -
27/12:00am 11.2 NW 19 27 1012.4 - 1.4 Showers Cloudy 6 - - - -
 
Date/Time
EST
Temp
°C
Wind Pressure Rain since
9am
mm
Weather Cloud Vis
km
Sea
Height
m
Swell
Dir  Spd
kts
Gust
kts
hPa Trend Height
m
Period
s
Dir
26/11:44pm 10.9 NW 18 22 1012.6 - 1.0 - Partly cloudy 5 - - - -
26/11:40pm 11.0 NW 17 23 1012.6 - 0.8 - Partly cloudy 7 - - - -
26/11:30pm 11.0 NW 21 27 1012.7 - 0.6 - Partly cloudy 5 - - - -
26/11:14pm 11.1 NNW 21 28 1012.6 - 0.2 - Partly cloudy 5 - - - -
26/11:00pm 11.2 NNW 22 28 1012.6 - 0.0 - Partly cloudy 10 - - - -
26/10:30pm 11.2 NNW 21 29 1012.7 - 0.0 - Partly cloudy 10 - - - -
26/10:14pm 11.1 NNW 19 23 1012.8 - 0.0 - Partly cloudy 10 - - - -
26/10:00pm 10.8 NNW 19 27 1012.9 - 0.0 - Cloudy 5 - - - -
26/09:30pm 11.5 NNW 19 26 1013.0 - 0.0 - Partly cloudy 10 - - - -
26/09:00pm 11.4 NNW 19 23 1013.1 - 0.0 - Cloudy 10 - - - -
26/08:30pm 11.6 NNW 17 22 1013.1 - 0.0 - Partly cloudy 10 - - - -
26/08:00pm 11.5 NNW 19 24 1013.2 - 0.0 - Partly cloudy 10 - - - -
26/07:30pm 11.6 NNW 20 26 1013.3 - 0.0 - Partly cloudy 10 - - - -
26/07:00pm 11.8 NNW 20 25 1013.5 - 0.0 - Partly cloudy 10 - - - -
26/06:30pm 11.5 NNW 18 21 1013.5 - 0.0 - Partly cloudy 10 - - - -
26/06:00pm 11.6 NNW 19 26 1013.5 - 0.0 - Cloudy 10 - - - -
26/05:30pm 11.3 NW 16 20 1013.5 - 0.0 - Partly cloudy 10 - - - -
26/05:00pm 11.2 NNW 16 21 1013.6 - 0.0 - Partly cloudy 10 - - - -
26/04:30pm 10.9 NNW 17 20 1013.6 - 0.0 - Partly cloudy 10 - - - -
26/04:00pm 11.1 NW 19 22 1013.8 - 0.0 - Partly cloudy 10 - - - -
26/03:30pm 11.1 NNW 18 22 1014.0 - 0.0 - Partly cloudy 10 - - - -
26/03:00pm 10.9 NNW 18 21 1014.3 - 0.0 - Cloudy 10 - - - -
26/02:30pm 11.2 NNW 18 21 1014.4 - 0.0 - Partly cloudy 10 - - - -
26/02:00pm 10.8 NNW 17 21 1014.7 - 0.0 - Partly cloudy 10 - - - -

Other Formats:

Comma delimited format used in spreadsheet applications
http://www.bom.gov.au/fwo/IDV60701/IDV60701.94850.axf

JavaScript Object Notation format (JSON) in row-major order
http://www.bom.gov.au/fwo/IDV60701/IDV60701.94850.json